Ester, Alaska
Current Conditions -  °F | °C
As of 9:53 PM on Friday 24 Oct 2014 (Local Time) from PAFA Reporting Station
Light Snow Light Snow  
Wind Chill: 24°   Ceiling: 3000
Heat Index: 24°   Visibility: 5mi
Dew Point: 20°   Wind: 3mph
Humidity: 84%   Direction: 190°S
Pressure: 29.96"   Gusts: NA
Location:  64.85°N, 148.02°W
Report Text: PAFA 250553Z 19003KT 5SM -SN BR FEW012 BKN030 OVC060 M04/M07 A2996 RMK AO2 SLP157 P0000 60002 T10441067 11022 21044 51010
Loading
Personal Weather Stations






























Interactive Weather Map
Tropical Storm Tracking
New forecast layout! Learn more

10-Day Weather Forecast

Advertisements
Track Severe Weather on mobile